createdAt,value
2022-09-05T00:02:04.279Z,151.50
2022-09-05T00:04:47.788Z,144.65
2022-09-05T00:07:34.410Z,156.32
2022-09-05T00:10:35.950Z,182.23
2022-09-05T00:13:22.651Z,168.38
2022-09-05T00:16:33.542Z,169.80
2022-09-05T00:24:24.708Z,170.32
2022-09-05T00:24:35.329Z,193.63
2022-09-05T00:26:32.238Z,172.05
2022-09-05T00:29:09.524Z,202.63
2022-09-05T00:31:57.259Z,188.30
2022-09-05T00:34:47.190Z,193.25
2022-09-05T00:37:40.158Z,207.25
2022-09-05T00:40:42.903Z,211.65
2022-09-05T00:43:17.796Z,215.55
2022-09-05T00:46:02.637Z,211.75
2022-09-05T00:48:53.449Z,216.07
2022-09-05T00:51:41.779Z,234.98
2022-09-05T00:54:12.913Z,228.70
2022-09-05T00:57:00.834Z,252.32
2022-09-05T00:59:58.892Z,221.77
2022-09-05T01:02:52.373Z,241.85
2022-09-05T01:05:47.291Z,229.80
2022-09-05T01:08:22.983Z,234.25
2022-09-05T01:10:52.884Z,239.73
2022-09-05T01:14:03.783Z,254.13
2022-09-05T01:16:53.682Z,256.25
2022-09-05T01:19:38.301Z,271.13
2022-09-05T01:22:33.385Z,273.17
2022-09-05T01:25:25.807Z,270.70
2022-09-05T01:29:14.098Z,277.40
2022-09-05T01:31:09.597Z,274.02
2022-09-05T01:33:53.961Z,267.33
2022-09-05T01:36:29.561Z,279.25
2022-09-05T01:40:10.546Z,272.38
2022-09-05T01:42:08.585Z,270.20
2022-09-05T01:44:55.396Z,259.13
2022-09-05T01:47:43.186Z,267.23
2022-09-05T01:50:15.957Z,247.77
2022-09-05T01:53:10.310Z,259.10
2022-09-05T01:56:08.762Z,252.15
2022-09-05T01:59:10.905Z,248.27
2022-09-05T02:01:46.603Z,230.40
2022-09-05T02:04:49.415Z,213.53
2022-09-05T02:07:30.104Z,241.43
2022-09-05T02:10:14.470Z,210.73
2022-09-05T02:13:01.908Z,211.25
2022-09-05T02:15:42.901Z,193.30
2022-09-05T02:18:23.283Z,178.30
2022-09-05T02:20:58.807Z,170.20
2022-09-05T02:23:52.681Z,169.48
2022-09-05T02:26:35.961Z,150.75
2022-09-05T02:29:29.169Z,158.95
2022-09-05T02:32:03.591Z,148.30
2022-09-05T02:34:58.938Z,132.75
2022-09-05T02:39:57.610Z,166.57
2022-09-05T02:45:01.105Z,140.20
2022-09-05T02:45:14.077Z,141.48
2022-09-05T02:46:30.747Z,130.00
2022-09-05T02:50:14.163Z,135.45
2022-09-05T02:57:25.626Z,128.27
2022-09-05T02:57:43.490Z,119.45
2022-09-05T02:58:11.117Z,89.45
2022-09-05T03:00:54.985Z,115.95
2022-09-05T03:03:34.976Z,113.00
2022-09-05T03:06:34.946Z,118.57
2022-09-05T03:09:23.093Z,119.50
2022-09-05T03:12:29.339Z,120.22
2022-09-05T03:15:43.489Z,112.27
2022-09-05T03:18:21.032Z,120.60
2022-09-05T03:21:09.007Z,122.32
2022-09-05T03:23:58.947Z,123.03
2022-09-05T03:26:43.521Z,120.93
2022-09-05T03:29:34.745Z,116.95
2022-09-05T03:32:07.431Z,117.68
2022-09-05T03:35:08.198Z,117.70
2022-09-05T03:38:01.929Z,119.53
2022-09-05T03:40:48.379Z,113.10
2022-09-05T03:43:29.815Z,109.00
2022-09-05T03:46:15.285Z,104.93
2022-09-05T03:50:03.726Z,111.22
2022-09-05T03:57:14.512Z,109.05
2022-09-05T03:57:15.839Z,108.28
2022-09-05T03:58:31.867Z,108.78
2022-09-05T04:03:20.268Z,106.43
2022-09-05T04:08:18.263Z,103.63
2022-09-05T04:08:20.722Z,105.77
2022-09-05T04:10:35.983Z,95.97
2022-09-05T04:13:09.517Z,99.05
2022-09-05T04:15:46.409Z,102.60
2022-09-05T04:18:18.701Z,97.10
2022-09-05T04:21:27.040Z,101.25
2022-09-05T04:24:14.949Z,99.43
2022-09-05T04:27:00.199Z,98.90
2022-09-05T04:29:57.563Z,98.32
2022-09-05T04:32:54.637Z,100.80
2022-09-05T04:35:21.761Z,96.60
2022-09-05T04:37:51.029Z,107.90
2022-09-05T04:40:40.028Z,99.50
2022-09-05T04:43:13.487Z,94.03
2022-09-05T04:46:19.343Z,102.20
2022-09-05T04:49:04.563Z,120.80
2022-09-05T04:51:41.319Z,115.20
2022-09-05T04:54:35.273Z,126.18
2022-09-05T04:57:14.251Z,129.57
2022-09-05T05:03:05.606Z,141.43
2022-09-05T05:06:15.486Z,133.55
2022-09-05T05:06:31.652Z,140.52
2022-09-05T05:08:53.947Z,127.93
2022-09-05T05:17:53.918Z,130.35
2022-09-05T05:18:04.179Z,133.75
2022-09-05T05:18:11.989Z,123.38
2022-09-05T05:21:07.332Z,126.25
2022-09-05T05:23:36.223Z,123.05
2022-09-05T05:26:07.019Z,121.65
2022-09-05T05:28:58.573Z,99.03
2022-09-05T05:31:30.293Z,94.50
2022-09-05T05:34:06.143Z,109.90
2022-09-05T05:36:55.291Z,90.77
2022-09-05T05:39:28.842Z,77.95
2022-09-05T05:41:57.125Z,60.85
2022-09-05T05:44:28.644Z,63.58
2022-09-05T05:47:31.724Z,53.28
2022-09-05T05:50:43.545Z,47.40
2022-09-05T05:53:45.443Z,41.53
2022-09-05T05:56:32.002Z,41.63
2022-09-05T05:59:13.547Z,40.55
2022-09-05T06:01:58.606Z,45.83
2022-09-05T06:05:04.022Z,35.05
2022-09-05T06:09:26.800Z,42.55
2022-09-05T06:14:55.645Z,34.45
2022-09-05T06:15:06.393Z,34.13
2022-09-05T06:17:19.994Z,35.17
2022-09-05T06:22:11.120Z,31.42
2022-09-05T06:23:56.388Z,30.13
2022-09-05T06:26:44.641Z,29.70
2022-09-05T06:29:45.186Z,29.13
2022-09-05T06:32:56.914Z,23.70
2022-09-05T06:35:41.362Z,23.77
2022-09-05T06:38:42.747Z,42.58
2022-09-05T06:41:33.707Z,29.55
2022-09-05T06:44:27.866Z,33.92
2022-09-05T06:47:24.119Z,29.48
2022-09-05T06:49:50.354Z,26.20
2022-09-05T06:52:28.204Z,29.52
2022-09-05T06:55:15.495Z,24.45
2022-09-05T06:58:15.942Z,24.30
2022-09-05T07:00:50.376Z,22.33
2022-09-05T07:03:23.988Z,20.25
2022-09-05T07:05:58.452Z,15.23
2022-09-05T07:08:52.033Z,12.18
2022-09-05T07:11:45.069Z,10.43
2022-09-05T07:14:36.267Z,9.73
2022-09-05T07:17:30.851Z,9.73
2022-09-05T07:20:01.874Z,8.10
2022-09-05T07:22:47.326Z,7.63
2022-09-05T07:25:22.602Z,6.72
2022-09-05T07:28:26.495Z,7.50
2022-09-05T07:30:55.662Z,3.88
2022-09-05T07:33:29.077Z,17.23
2022-09-05T07:36:19.493Z,3.42
2022-09-05T07:39:02.342Z,3.13
2022-09-05T07:41:41.036Z,2.20
2022-09-05T07:44:30.786Z,2.03
2022-09-05T07:47:10.157Z,2.42
2022-09-05T07:49:51.901Z,3.20
2022-09-05T07:56:49.703Z,2.75
2022-09-05T07:57:00.082Z,2.20
2022-09-05T07:58:17.265Z,4.30
2022-09-05T08:00:50.793Z,58.40
2022-09-05T08:03:23.181Z,7.63
2022-09-05T08:05:54.180Z,17.63
2022-09-05T08:08:31.502Z,2.05
2022-09-05T08:11:23.542Z,2.58
2022-09-05T08:14:45.187Z,2.97
2022-09-05T08:17:17.154Z,5.07
2022-09-05T08:20:08.982Z,3.47
2022-09-05T08:23:04.373Z,1.88
2022-09-05T08:25:57.557Z,6.40
2022-09-05T08:28:45.137Z,2.13
2022-09-05T08:31:21.905Z,2.17
2022-09-05T08:33:52.717Z,2.47
2022-09-05T08:36:36.219Z,11.05
2022-09-05T08:39:05.986Z,4.90
2022-09-05T08:42:05.030Z,5.30
2022-09-05T08:46:42.505Z,2.33
2022-09-05T08:48:12.653Z,4.20
2022-09-05T08:51:13.495Z,2.70
2022-09-05T08:54:04.158Z,3.40
2022-09-05T08:56:48.371Z,4.23
2022-09-05T08:59:33.614Z,1.92
2022-09-05T09:02:47.937Z,5.05
2022-09-05T09:05:24.031Z,3.47
2022-09-05T09:07:56.607Z,3.00
2022-09-05T09:10:37.601Z,2.15
2022-09-05T09:13:23.069Z,11.30
2022-09-05T09:16:06.584Z,5.60
2022-09-05T09:18:53.568Z,1.85
2022-09-05T09:21:38.941Z,4.13
2022-09-05T09:24:40.149Z,1.48
2022-09-05T09:27:13.222Z,3.90
2022-09-05T09:29:42.801Z,1.77
2022-09-05T09:32:14.253Z,3.60
2022-09-05T09:35:06.464Z,1.17
2022-09-05T09:38:07.017Z,2.85
2022-09-05T09:40:52.368Z,3.28
2022-09-05T09:43:53.871Z,1.83
2022-09-05T09:46:43.538Z,3.63
2022-09-05T09:49:49.672Z,2.17
2022-09-05T09:52:56.601Z,5.10
2022-09-05T09:55:45.968Z,2.80
2022-09-05T09:58:15.681Z,1.98
2022-09-05T10:01:00.832Z,6.15
2022-09-05T10:09:03.050Z,1.48
2022-09-05T10:11:09.183Z,1.77
2022-09-05T10:11:09.343Z,1.27
2022-09-05T10:13:20.031Z,3.05
2022-09-05T10:16:21.486Z,2.70
2022-09-05T10:19:02.360Z,1.58
2022-09-05T10:24:52.581Z,2.50
2022-09-05T10:27:29.921Z,1.67
2022-09-05T10:30:08.067Z,1.42
2022-09-05T10:35:13.252Z,2.13
2022-09-05T10:36:07.907Z,1.23
2022-09-05T10:38:46.421Z,3.20
2022-09-05T10:41:20.935Z,2.10
2022-09-05T10:44:02.923Z,3.08
2022-09-05T10:47:00.385Z,3.50
2022-09-05T10:49:33.801Z,6.95
2022-09-05T10:52:22.353Z,2.03
2022-09-05T10:55:15.208Z,2.65
2022-09-05T10:57:51.222Z,1.75
2022-09-05T11:02:30.288Z,1.63
2022-09-05T11:03:52.644Z,2.25
2022-09-05T11:06:28.436Z,3.17
2022-09-05T11:09:06.142Z,5.03
2022-09-05T11:11:45.942Z,1.90
2022-09-05T11:14:44.232Z,4.57
2022-09-05T11:17:31.967Z,4.82
2022-09-05T11:20:30.328Z,2.63
2022-09-05T11:23:12.659Z,2.45
2022-09-05T11:25:41.275Z,2.00
2022-09-05T11:28:22.264Z,4.18
2022-09-05T11:30:54.630Z,2.83
2022-09-05T11:39:50.314Z,2.08
2022-09-05T11:39:53.971Z,1.67
2022-09-05T11:40:00.589Z,1.65
2022-09-05T11:43:01.977Z,2.90
2022-09-05T11:46:02.801Z,2.25
2022-09-05T11:48:35.270Z,7.63
2022-09-05T11:51:33.975Z,3.10
2022-09-05T11:54:06.532Z,3.33
2022-09-05T11:57:18.016Z,1.50
2022-09-05T12:00:32.184Z,1.88
2022-09-05T12:03:58.260Z,3.20
2022-09-05T12:06:48.193Z,1.70
2022-09-05T12:09:38.067Z,5.53
2022-09-05T12:12:41.300Z,1.40
2022-09-05T12:15:34.252Z,4.88
2022-09-05T12:18:18.942Z,2.95
2022-09-05T12:20:52.362Z,2.65
2022-09-05T12:23:49.365Z,2.80
2022-09-05T12:29:29.332Z,1.83
2022-09-05T12:33:48.017Z,3.47
2022-09-05T12:36:06.665Z,2.50
2022-09-05T12:40:58.291Z,4.20
2022-09-05T12:41:44.902Z,1.33
2022-09-05T12:42:09.901Z,4.10
2022-09-05T12:44:42.713Z,4.65
2022-09-05T12:47:18.757Z,4.65
2022-09-05T12:50:14.438Z,5.25
2022-09-05T12:52:46.602Z,2.55
2022-09-05T12:55:29.359Z,1.60
2022-09-05T13:02:58.008Z,9.63
2022-09-05T13:03:01.948Z,2.58
2022-09-05T13:04:16.102Z,2.17
2022-09-05T13:06:42.427Z,2.38
2022-09-05T13:09:11.004Z,4.28
2022-09-05T13:14:57.342Z,2.35
2022-09-05T13:15:28.663Z,3.13
2022-09-05T13:18:08.506Z,1.52
2022-09-05T13:20:39.267Z,2.20
2022-09-05T13:23:31.157Z,1.95
2022-09-05T13:26:08.249Z,3.00
2022-09-05T13:28:52.818Z,4.00
2022-09-05T13:38:04.004Z,2.92
2022-09-05T13:38:20.930Z,4.05
2022-09-05T13:38:29.313Z,4.07
2022-09-05T13:40:43.351Z,3.85
2022-09-05T13:43:26.493Z,1.70
2022-09-05T13:46:10.962Z,2.35
2022-09-05T13:51:54.645Z,3.40
2022-09-05T13:54:43.619Z,2.22
2022-09-05T13:57:33.159Z,2.35
2022-09-05T14:00:08.780Z,2.20
2022-09-05T14:03:39.101Z,2.30
2022-09-05T14:06:45.940Z,2.10
2022-09-05T14:09:41.253Z,1.58
2022-09-05T14:12:11.642Z,1.90
2022-09-05T14:17:54.527Z,6.18
2022-09-05T14:21:00.829Z,3.42
2022-09-05T14:23:40.573Z,6.07
2022-09-05T14:26:15.853Z,2.45
2022-09-05T14:29:23.095Z,2.60
2022-09-05T14:37:36.554Z,2.40
2022-09-05T14:37:55.238Z,3.85
2022-09-05T14:38:56.362Z,2.22
2022-09-05T14:41:28.727Z,2.22
2022-09-05T14:44:27.589Z,2.40
2022-09-05T14:47:35.644Z,1.48
2022-09-05T14:50:06.131Z,3.33
2022-09-05T14:52:35.572Z,3.88
2022-09-05T15:02:44.773Z,5.53
2022-09-05T15:02:45.242Z,7.18
2022-09-05T15:06:34.154Z,2.30
2022-09-05T15:12:14.753Z,3.83
2022-09-05T15:12:24.183Z,3.53
2022-09-05T15:14:51.455Z,2.83
2022-09-05T15:17:24.166Z,2.67
2022-09-05T15:20:05.344Z,3.30
2022-09-05T15:22:38.543Z,2.83
2022-09-05T15:25:18.723Z,1.50
2022-09-05T15:27:47.089Z,3.17
2022-09-05T15:30:34.881Z,3.65
2022-09-05T15:33:25.406Z,3.00
2022-09-05T15:35:53.183Z,1.98
2022-09-05T15:38:27.330Z,2.97
2022-09-05T15:41:19.524Z,7.70
2022-09-05T15:44:04.601Z,3.72
2022-09-05T15:47:01.238Z,7.18
2022-09-05T15:49:52.584Z,3.70
2022-09-05T15:52:19.248Z,2.45
2022-09-05T15:55:03.665Z,2.20
2022-09-05T15:57:34.284Z,3.00
2022-09-05T16:00:10.136Z,3.78
2022-09-05T16:02:44.809Z,1.88
2022-09-05T16:10:36.492Z,2.75
2022-09-05T16:10:50.657Z,2.20
2022-09-05T16:12:07.656Z,2.13
2022-09-05T16:14:26.626Z,4.63
2022-09-05T16:23:13.032Z,4.17
2022-09-05T16:23:23.749Z,1.60
2022-09-05T16:23:25.664Z,3.83
2022-09-05T16:25:57.001Z,2.92
2022-09-05T16:28:27.908Z,2.47
2022-09-05T16:31:19.354Z,2.20
2022-09-05T16:33:47.641Z,3.10
2022-09-05T16:36:19.044Z,1.85
2022-09-05T16:38:49.725Z,2.08
2022-09-05T16:41:41.695Z,3.65
2022-09-05T16:44:27.053Z,3.67
2022-09-05T16:47:39.740Z,4.53
2022-09-05T16:50:34.453Z,6.57
2022-09-05T16:53:20.928Z,11.23
2022-09-05T16:56:06.869Z,11.60
2022-09-05T16:58:46.093Z,6.38
2022-09-05T17:01:37.742Z,6.75
2022-09-05T17:04:36.925Z,5.80
2022-09-05T17:07:16.452Z,4.22
2022-09-05T17:09:45.302Z,5.90
2022-09-05T17:12:22.880Z,5.68
2022-09-05T17:14:53.973Z,7.13
2022-09-05T17:18:20.165Z,8.95
2022-09-05T17:20:25.234Z,8.90
2022-09-05T17:26:36.971Z,8.23
2022-09-05T17:29:25.254Z,12.25
2022-09-05T17:29:28.321Z,6.30
2022-09-05T17:31:58.221Z,21.83
2022-09-05T17:34:51.242Z,24.77
2022-09-05T17:37:27.096Z,23.77
2022-09-05T17:40:31.825Z,28.65
2022-09-05T17:43:02.535Z,44.13
2022-09-05T17:45:44.777Z,43.40
2022-09-05T17:48:16.509Z,37.88
2022-09-05T17:50:51.505Z,39.08
2022-09-05T17:53:25.604Z,35.27
2022-09-05T17:55:54.722Z,47.13
2022-09-05T17:59:01.297Z,40.25
2022-09-05T18:01:28.843Z,34.67
2022-09-05T18:04:13.182Z,40.17
2022-09-05T18:06:47.072Z,37.60
2022-09-05T18:09:39.908Z,45.90
2022-09-05T18:13:13.551Z,49.72
2022-09-05T18:15:28.449Z,55.60
2022-09-05T18:18:01.296Z,54.70
2022-09-05T18:20:54.166Z,54.25
2022-09-05T18:23:54.532Z,46.20
2022-09-05T18:26:24.641Z,50.72
2022-09-05T18:29:21.332Z,48.33
2022-09-05T18:32:00.085Z,37.43
2022-09-05T18:34:32.208Z,57.33
2022-09-05T18:36:59.080Z,46.47
2022-09-05T18:39:38.051Z,36.08
2022-09-05T18:42:33.313Z,51.03
2022-09-05T18:45:28.737Z,55.97
2022-09-05T18:48:02.764Z,40.15
2022-09-05T18:50:34.805Z,50.97
2022-09-05T18:53:10.327Z,51.55
2022-09-05T18:56:27.405Z,47.05
2022-09-05T18:59:24.085Z,47.50
2022-09-05T19:02:00.366Z,47.35
2022-09-05T19:04:46.485Z,45.20
2022-09-05T19:07:28.215Z,34.65
2022-09-05T19:10:36.019Z,55.88
2022-09-05T19:13:18.518Z,48.38
2022-09-05T19:16:43.184Z,47.35
2022-09-05T19:19:16.672Z,54.28
2022-09-05T19:22:05.538Z,58.45
2022-09-05T19:24:45.376Z,61.20
2022-09-05T19:30:19.329Z,53.78
2022-09-05T19:36:56.310Z,55.87
2022-09-05T19:37:06.455Z,60.53
2022-09-05T19:37:25.452Z,66.97
2022-09-05T19:40:46.715Z,57.60
2022-09-05T19:47:29.406Z,48.92
2022-09-05T19:47:47.448Z,60.92
2022-09-05T19:50:27.860Z,55.28
2022-09-05T19:53:07.735Z,60.08
2022-09-05T19:55:37.721Z,73.55
2022-09-05T19:58:29.466Z,68.97
2022-09-05T20:01:08.427Z,57.85
2022-09-05T20:03:41.922Z,57.95
2022-09-05T20:06:30.291Z,64.18
2022-09-05T20:09:21.467Z,62.17
2022-09-05T20:11:56.030Z,41.10
2022-09-05T20:14:28.986Z,61.03
2022-09-05T20:17:16.956Z,47.88
2022-09-05T20:19:44.817Z,47.40
2022-09-05T20:22:46.885Z,63.55
2022-09-05T20:25:19.890Z,71.67
2022-09-05T20:28:07.108Z,68.72
2022-09-05T20:30:42.309Z,66.47
2022-09-05T20:33:36.857Z,58.22
2022-09-05T20:43:08.717Z,57.83
2022-09-05T20:43:25.125Z,56.22
2022-09-05T20:43:35.737Z,77.55
2022-09-05T20:44:50.707Z,62.47
2022-09-05T20:52:49.048Z,70.93
2022-09-05T20:54:14.521Z,56.42
2022-09-05T20:54:27.071Z,52.63
2022-09-05T20:56:23.630Z,67.03
2022-09-05T20:58:51.592Z,58.13
2022-09-05T21:01:23.420Z,51.35
2022-09-05T21:03:59.386Z,65.18
2022-09-05T21:06:34.401Z,68.70
2022-09-05T21:09:26.210Z,64.05
2022-09-05T21:11:55.789Z,64.90
2022-09-05T21:14:24.201Z,85.78
2022-09-05T21:17:14.901Z,46.72
2022-09-05T21:19:53.499Z,55.05
2022-09-05T21:22:33.232Z,72.05
2022-09-05T21:25:15.154Z,67.70
2022-09-05T21:27:54.487Z,72.00
2022-09-05T21:30:29.410Z,75.57
2022-09-05T21:33:18.166Z,74.25
2022-09-05T21:35:48.818Z,81.93
2022-09-05T21:38:18.361Z,71.28
2022-09-05T21:41:04.629Z,69.38
2022-09-05T21:47:38.804Z,66.35
2022-09-05T21:47:46.807Z,80.00
2022-09-05T21:49:14.266Z,75.20
2022-09-05T21:51:40.903Z,68.28
2022-09-05T21:59:16.076Z,65.70
2022-09-05T21:59:25.144Z,75.78
2022-09-05T21:59:59.535Z,73.85
2022-09-05T22:02:46.724Z,78.03
2022-09-05T22:05:13.707Z,71.60
2022-09-05T22:07:40.540Z,83.63
2022-09-05T22:10:08.597Z,86.68
2022-09-05T22:12:38.965Z,82.93
2022-09-05T22:15:27.471Z,76.18
2022-09-05T22:18:16.454Z,75.88
2022-09-05T22:20:44.891Z,59.80
2022-09-05T22:23:11.938Z,71.97
2022-09-05T22:25:39.315Z,72.93
2022-09-05T22:28:12.763Z,80.85
2022-09-05T22:30:39.754Z,78.75
2022-09-05T22:33:07.270Z,89.57
2022-09-05T22:35:35.855Z,71.35
2022-09-05T22:38:10.553Z,68.03
2022-09-05T22:40:40.842Z,70.20
2022-09-05T22:43:09.481Z,67.90
2022-09-05T22:45:38.051Z,95.30
2022-09-05T22:48:10.500Z,76.43
2022-09-05T22:50:38.349Z,60.00
2022-09-05T22:53:07.088Z,75.13
2022-09-05T22:55:35.154Z,82.38
2022-09-05T22:58:02.567Z,63.92
2022-09-05T23:00:29.532Z,79.50
2022-09-05T23:03:00.277Z,93.78
2022-09-05T23:05:27.242Z,85.65
2022-09-05T23:07:57.772Z,80.50
2022-09-05T23:10:25.463Z,97.22
2022-09-05T23:12:52.440Z,81.78
2022-09-05T23:15:19.453Z,83.40
2022-09-05T23:17:53.602Z,81.63
2022-09-05T23:20:20.368Z,84.65
2022-09-05T23:22:51.576Z,82.87
2022-09-05T23:25:18.700Z,69.60
2022-09-05T23:27:45.886Z,72.20
2022-09-05T23:30:12.624Z,87.35
2022-09-05T23:32:50.146Z,90.15
2022-09-05T23:35:20.783Z,88.85
2022-09-05T23:37:48.428Z,82.97
2022-09-05T23:40:17.841Z,78.90
2022-09-05T23:42:57.385Z,78.97
2022-09-05T23:45:24.998Z,74.18
2022-09-05T23:47:51.931Z,85.20
2022-09-05T23:50:19.646Z,97.07
2022-09-05T23:52:47.452Z,73.55
2022-09-05T23:55:17.034Z,75.15
2022-09-05T23:57:44.211Z,85.18
